createdAt,value
2017-06-28T00:01:31.303Z,7.07
2017-06-28T00:03:58.795Z,3.75
2017-06-28T00:06:26.289Z,5.18
2017-06-28T00:08:53.897Z,7.87
2017-06-28T00:11:21.498Z,4.15
2017-06-28T00:13:49.030Z,6.85
2017-06-28T00:16:18.196Z,4.50
2017-06-28T00:18:45.701Z,5.95
2017-06-28T00:21:13.217Z,5.75
2017-06-28T00:23:40.757Z,6.32
2017-06-28T00:26:08.247Z,4.12
2017-06-28T00:28:35.798Z,6.15
2017-06-28T00:31:03.286Z,5.47
2017-06-28T00:33:30.795Z,3.90
2017-06-28T00:35:59.062Z,5.15
2017-06-28T00:38:26.558Z,6.60
2017-06-28T00:40:54.057Z,6.53
2017-06-28T00:43:21.561Z,7.25
2017-06-28T00:45:49.128Z,4.95
2017-06-28T00:48:16.626Z,4.55
2017-06-28T00:50:44.126Z,4.45
2017-06-28T00:53:11.614Z,6.70
2017-06-28T00:55:39.107Z,3.22
2017-06-28T00:58:09.145Z,4.32
2017-06-28T01:00:36.666Z,4.55
2017-06-28T01:03:04.163Z,6.12
2017-06-28T01:05:31.669Z,5.60
2017-06-28T01:07:59.170Z,3.80
2017-06-28T01:10:26.651Z,4.40
2017-06-28T01:12:54.150Z,6.62
2017-06-28T01:15:21.653Z,4.50
2017-06-28T01:17:49.168Z,3.72
2017-06-28T01:20:16.650Z,3.53
2017-06-28T01:22:44.157Z,7.72
2017-06-28T01:25:11.652Z,3.20
2017-06-28T01:27:39.255Z,3.78
2017-06-28T01:30:06.793Z,4.03
2017-06-28T01:32:34.436Z,4.45
2017-06-28T01:35:01.936Z,4.55
2017-06-28T01:37:29.479Z,3.85
2017-06-28T01:39:56.984Z,6.80
2017-06-28T01:42:24.471Z,4.40
2017-06-28T01:44:51.947Z,3.20
2017-06-28T01:47:19.442Z,6.05
2017-06-28T01:49:46.926Z,5.20
2017-06-28T01:52:14.439Z,7.15
2017-06-28T01:54:41.940Z,6.35
2017-06-28T01:57:09.435Z,4.97
2017-06-28T01:59:36.944Z,10.02
2017-06-28T02:02:05.213Z,3.47
2017-06-28T02:04:32.694Z,3.70
2017-06-28T02:07:00.256Z,4.53
2017-06-28T02:09:27.766Z,4.95
2017-06-28T02:11:55.265Z,6.00
2017-06-28T02:14:23.537Z,3.30
2017-06-28T02:16:51.811Z,3.55
2017-06-28T02:19:20.152Z,7.30
2017-06-28T02:21:47.733Z,3.62
2017-06-28T02:24:15.217Z,3.37
2017-06-28T02:26:43.462Z,4.62
2017-06-28T02:29:11.009Z,4.87
2017-06-28T02:31:38.513Z,3.80
2017-06-28T02:34:05.993Z,4.25
2017-06-28T02:36:33.528Z,4.82
2017-06-28T02:39:01.786Z,5.30
2017-06-28T02:41:29.257Z,3.92
2017-06-28T02:43:57.532Z,6.03
2017-06-28T02:46:25.060Z,4.05
2017-06-28T02:48:52.563Z,4.57
2017-06-28T02:51:20.022Z,3.55
2017-06-28T02:53:47.529Z,5.82
2017-06-28T02:56:15.051Z,4.78
2017-06-28T02:58:42.628Z,5.47
2017-06-28T03:01:10.118Z,3.92
2017-06-28T03:03:37.629Z,7.20
2017-06-28T03:06:05.126Z,11.20
2017-06-28T03:08:32.610Z,4.03
2017-06-28T03:11:00.211Z,5.07
2017-06-28T03:13:27.694Z,5.97
2017-06-28T03:15:55.201Z,4.70
2017-06-28T03:18:22.728Z,3.40
2017-06-28T03:20:50.221Z,4.12
2017-06-28T03:23:18.498Z,4.22
2017-06-28T03:25:46.761Z,11.35
2017-06-28T03:28:14.283Z,6.62
2017-06-28T03:30:41.808Z,3.40
2017-06-28T03:33:09.319Z,6.47
2017-06-28T03:35:36.832Z,7.90
2017-06-28T03:38:04.324Z,5.15
2017-06-28T03:40:31.819Z,6.78
2017-06-28T03:42:59.312Z,3.50
2017-06-28T03:45:26.811Z,5.35
2017-06-28T03:47:54.289Z,6.00
2017-06-28T03:50:21.811Z,6.32
2017-06-28T03:52:49.326Z,7.55
2017-06-28T03:55:16.851Z,7.62
2017-06-28T03:57:44.358Z,6.55
2017-06-28T04:00:11.866Z,5.93
2017-06-28T04:02:39.347Z,6.07
2017-06-28T04:05:06.839Z,5.60
2017-06-28T04:07:34.322Z,7.47
2017-06-28T04:10:01.833Z,4.87
2017-06-28T04:12:30.080Z,7.15
2017-06-28T04:14:57.581Z,5.95
2017-06-28T04:17:25.841Z,5.70
2017-06-28T04:19:54.729Z,6.07
2017-06-28T04:22:22.212Z,7.68
2017-06-28T04:24:49.758Z,9.05
2017-06-28T04:27:17.254Z,6.53
2017-06-28T04:29:44.767Z,6.15
2017-06-28T04:32:12.330Z,5.03
2017-06-28T04:34:39.830Z,5.47
2017-06-28T04:37:07.350Z,6.10
2017-06-28T04:39:35.632Z,6.72
2017-06-28T04:42:03.904Z,6.43
2017-06-28T04:44:32.171Z,7.28
2017-06-28T04:46:59.680Z,6.07
2017-06-28T04:49:27.220Z,6.03
2017-06-28T04:51:54.684Z,5.70
2017-06-28T04:54:22.212Z,7.80
2017-06-28T04:56:49.737Z,6.93
2017-06-28T04:59:17.234Z,6.28
2017-06-28T05:01:44.803Z,6.37
2017-06-28T05:04:13.069Z,5.93
2017-06-28T05:06:40.568Z,5.90
2017-06-28T05:09:08.116Z,11.50
2017-06-28T05:11:35.610Z,14.38
2017-06-28T05:14:03.117Z,6.57
2017-06-28T05:16:31.405Z,8.38
2017-06-28T05:18:58.916Z,5.80
2017-06-28T05:21:26.473Z,6.40
2017-06-28T05:23:54.042Z,10.50
2017-06-28T05:26:21.532Z,7.45
2017-06-28T05:28:49.145Z,6.97
2017-06-28T05:31:16.661Z,7.75
2017-06-28T05:33:44.153Z,8.30
2017-06-28T05:36:11.718Z,8.95
2017-06-28T05:38:39.287Z,10.52
2017-06-28T05:41:06.792Z,9.68
2017-06-28T05:43:35.062Z,9.57
2017-06-28T05:46:03.326Z,10.88
2017-06-28T05:48:30.873Z,10.95
2017-06-28T05:50:58.349Z,10.00
2017-06-28T05:53:25.864Z,8.50
2017-06-28T05:55:53.379Z,16.37
2017-06-28T05:58:21.652Z,6.87
2017-06-28T06:00:49.923Z,10.68
2017-06-28T06:03:17.441Z,8.13
2017-06-28T06:05:44.947Z,29.15
2017-06-28T06:08:12.422Z,8.70
2017-06-28T06:10:39.922Z,7.65
2017-06-28T06:13:07.462Z,10.30
2017-06-28T06:15:34.965Z,8.65
2017-06-28T06:18:02.461Z,7.35
2017-06-28T06:20:29.969Z,16.52
2017-06-28T06:22:57.438Z,8.20
2017-06-28T06:25:24.932Z,8.52
2017-06-28T06:27:52.636Z,10.38
2017-06-28T06:30:20.207Z,7.47
2017-06-28T06:32:47.706Z,14.77
2017-06-28T06:35:15.271Z,9.43
2017-06-28T06:37:42.755Z,10.57
2017-06-28T06:40:10.337Z,11.95
2017-06-28T06:42:37.841Z,15.75
2017-06-28T06:45:05.390Z,10.70
2017-06-28T06:47:33.695Z,7.97
2017-06-28T06:50:02.353Z,14.98
2017-06-28T06:52:30.009Z,9.40
2017-06-28T06:54:57.554Z,9.98
2017-06-28T06:57:25.053Z,10.20
2017-06-28T06:59:52.544Z,12.13
2017-06-28T07:02:20.118Z,11.35
2017-06-28T07:04:47.659Z,8.80
2017-06-28T07:07:15.194Z,8.50
2017-06-28T07:09:42.687Z,9.50
2017-06-28T07:12:10.175Z,10.90
2017-06-28T07:14:37.676Z,7.75
2017-06-28T07:17:05.208Z,8.40
2017-06-28T07:19:32.733Z,7.87
2017-06-28T07:22:00.253Z,8.55
2017-06-28T07:24:27.738Z,8.40
2017-06-28T07:26:55.244Z,9.43
2017-06-28T07:29:22.719Z,9.18
2017-06-28T07:31:50.976Z,7.40
2017-06-28T07:34:18.519Z,9.23
2017-06-28T07:36:46.000Z,7.50
2017-06-28T07:39:13.507Z,8.60
2017-06-28T07:41:41.016Z,11.75
2017-06-28T07:44:09.326Z,6.87
2017-06-28T07:46:36.876Z,7.62
2017-06-28T07:49:04.425Z,10.82
2017-06-28T07:51:32.682Z,8.18
2017-06-28T07:54:00.180Z,9.18
2017-06-28T07:56:27.712Z,8.60
2017-06-28T07:58:55.243Z,13.00
2017-06-28T08:01:22.748Z,8.57
2017-06-28T08:03:50.297Z,7.60
2017-06-28T08:06:17.827Z,7.53
2017-06-28T08:08:45.345Z,10.07
2017-06-28T08:11:12.884Z,7.00
2017-06-28T08:13:40.385Z,7.55
2017-06-28T08:16:07.961Z,8.10
2017-06-28T08:18:35.457Z,7.87
2017-06-28T08:21:02.963Z,7.07
2017-06-28T08:23:30.500Z,7.72
2017-06-28T08:25:58.022Z,6.35
2017-06-28T08:28:25.547Z,8.55
2017-06-28T08:30:53.064Z,9.00
2017-06-28T08:33:20.565Z,6.60
2017-06-28T08:35:48.078Z,10.00
2017-06-28T08:38:15.579Z,8.27
2017-06-28T08:40:43.089Z,7.47
2017-06-28T08:43:11.350Z,17.98
2017-06-28T08:45:38.819Z,8.88
2017-06-28T08:48:07.095Z,9.15
2017-06-28T08:50:35.405Z,7.00
2017-06-28T08:53:03.005Z,7.53
2017-06-28T08:55:30.495Z,9.48
2017-06-28T08:57:58.006Z,10.93
2017-06-28T09:00:25.492Z,8.00
2017-06-28T09:02:52.991Z,8.25
2017-06-28T09:05:20.571Z,7.25
2017-06-28T09:07:48.087Z,9.27
2017-06-28T09:10:15.624Z,8.55
2017-06-28T09:12:43.112Z,7.32
2017-06-28T09:15:11.384Z,8.40
2017-06-28T09:17:38.899Z,8.43
2017-06-28T09:20:06.423Z,8.77
2017-06-28T09:22:34.059Z,6.82
2017-06-28T09:25:01.589Z,9.27
2017-06-28T09:27:29.130Z,8.23
2017-06-28T09:29:56.623Z,8.73
2017-06-28T09:32:24.132Z,8.98
2017-06-28T09:34:52.351Z,8.23
2017-06-28T09:37:19.867Z,8.10
2017-06-28T09:39:47.361Z,9.18
2017-06-28T09:42:14.997Z,7.05
2017-06-28T09:44:42.500Z,7.50
2017-06-28T09:47:09.994Z,7.60
2017-06-28T09:49:37.493Z,10.93
2017-06-28T09:52:05.004Z,12.15
2017-06-28T09:54:32.495Z,12.00
2017-06-28T09:56:59.998Z,6.57
2017-06-28T09:59:27.522Z,8.32
2017-06-28T10:01:55.009Z,10.25
2017-06-28T10:04:22.511Z,9.05
2017-06-28T10:06:50.030Z,7.53
2017-06-28T10:09:17.531Z,18.45
2017-06-28T10:11:45.038Z,7.68
2017-06-28T10:14:12.574Z,8.35
2017-06-28T10:16:40.070Z,8.48
2017-06-28T10:19:07.573Z,8.85
2017-06-28T10:21:35.076Z,7.43
2017-06-28T10:24:02.592Z,7.12
2017-06-28T10:26:30.082Z,7.80
2017-06-28T10:28:57.696Z,7.20
2017-06-28T10:31:25.226Z,10.52
2017-06-28T10:33:52.731Z,6.40
2017-06-28T10:36:20.289Z,6.90
2017-06-28T10:38:47.808Z,7.85
2017-06-28T10:41:16.083Z,6.70
2017-06-28T10:43:43.590Z,10.88
2017-06-28T10:46:11.154Z,9.73
2017-06-28T10:48:38.691Z,7.15
2017-06-28T10:51:06.252Z,6.10
2017-06-28T10:53:33.829Z,5.50
2017-06-28T10:56:01.333Z,5.20
2017-06-28T10:58:28.842Z,6.40
2017-06-28T11:00:56.362Z,7.00
2017-06-28T11:03:24.657Z,7.77
2017-06-28T11:05:52.913Z,6.10
2017-06-28T11:08:20.462Z,6.23
2017-06-28T11:10:47.977Z,5.03
2017-06-28T11:13:15.471Z,5.27
2017-06-28T11:15:43.828Z,5.13
2017-06-28T11:18:11.324Z,8.50
2017-06-28T11:20:38.813Z,6.57
2017-06-28T11:23:06.319Z,5.87
2017-06-28T11:25:34.745Z,6.17
2017-06-28T11:28:02.241Z,5.80
2017-06-28T11:30:29.710Z,7.50
2017-06-28T11:32:57.251Z,6.80
2017-06-28T11:35:24.758Z,5.77
2017-06-28T11:37:52.342Z,5.80
2017-06-28T11:40:20.581Z,11.23
2017-06-28T11:42:48.083Z,7.37
2017-06-28T11:45:16.359Z,13.53
2017-06-28T11:47:44.722Z,4.90
2017-06-28T11:50:12.235Z,5.37
2017-06-28T11:52:39.726Z,5.43
2017-06-28T11:55:07.236Z,7.83
2017-06-28T11:57:34.801Z,8.57
2017-06-28T12:00:02.286Z,6.70
2017-06-28T12:02:29.815Z,8.73
2017-06-28T12:04:57.370Z,5.70
2017-06-28T12:07:24.873Z,6.20
2017-06-28T12:09:52.366Z,6.17
2017-06-28T12:12:20.635Z,8.30
2017-06-28T12:14:48.887Z,6.63
2017-06-28T12:17:16.388Z,4.93
2017-06-28T12:19:43.911Z,7.90
2017-06-28T12:22:11.510Z,5.63
2017-06-28T12:24:39.036Z,9.13
2017-06-28T12:27:06.526Z,5.10
2017-06-28T12:29:34.209Z,4.40
2017-06-28T12:32:01.694Z,4.83
2017-06-28T12:34:29.180Z,4.57
2017-06-28T12:36:56.766Z,5.37
2017-06-28T12:39:24.272Z,5.80
2017-06-28T12:41:51.781Z,6.43
2017-06-28T12:44:19.293Z,7.80
2017-06-28T12:46:46.801Z,7.03
2017-06-28T12:49:14.338Z,5.80
2017-06-28T12:51:41.870Z,6.30
2017-06-28T12:54:09.402Z,6.20
2017-06-28T12:56:36.962Z,5.97
2017-06-28T12:59:04.507Z,9.53
2017-06-28T13:01:32.153Z,6.80
2017-06-28T13:04:01.539Z,6.77
2017-06-28T13:06:29.536Z,7.27
2017-06-28T13:08:57.026Z,7.40
2017-06-28T13:11:24.537Z,8.10
2017-06-28T13:13:52.037Z,8.20
2017-06-28T13:16:19.538Z,7.73
2017-06-28T13:18:47.088Z,8.00
2017-06-28T13:21:14.575Z,7.50
2017-06-28T13:23:42.844Z,7.53
2017-06-28T13:26:11.146Z,9.17
2017-06-28T13:28:38.686Z,8.57
2017-06-28T13:31:06.330Z,8.27
2017-06-28T13:33:33.861Z,10.03
2017-06-28T13:36:01.341Z,8.13
2017-06-28T13:38:28.822Z,7.90
2017-06-28T13:40:56.337Z,8.53
2017-06-28T13:43:23.872Z,8.67
2017-06-28T13:45:51.369Z,7.80
2017-06-28T13:48:18.913Z,9.00
2017-06-28T13:50:46.417Z,8.15
2017-06-28T13:53:13.958Z,8.80
2017-06-28T13:55:41.480Z,9.35
2017-06-28T13:58:08.965Z,8.82
2017-06-28T14:00:36.520Z,9.18
2017-06-28T14:03:04.033Z,9.52
2017-06-28T14:05:31.556Z,8.88
2017-06-28T14:07:59.086Z,8.77
2017-06-28T14:10:26.602Z,8.77
2017-06-28T14:12:54.855Z,9.60
2017-06-28T14:15:22.355Z,10.55
2017-06-28T14:17:49.899Z,10.63
2017-06-28T14:20:17.395Z,8.77
2017-06-28T14:22:44.887Z,12.02
2017-06-28T14:25:12.384Z,10.35
2017-06-28T14:27:39.926Z,14.45
2017-06-28T14:30:07.438Z,13.18
2017-06-28T14:32:34.961Z,12.93
2017-06-28T14:35:02.473Z,13.00
2017-06-28T14:37:30.051Z,13.30
2017-06-28T14:39:57.586Z,12.23
2017-06-28T14:42:25.138Z,14.23
2017-06-28T14:44:52.651Z,13.48
2017-06-28T14:47:20.935Z,15.98
2017-06-28T14:49:49.224Z,13.65
2017-06-28T14:52:16.750Z,13.43
2017-06-28T14:54:44.240Z,15.85
2017-06-28T14:57:11.759Z,15.07
2017-06-28T14:59:39.387Z,15.90
2017-06-28T15:02:06.997Z,17.10
2017-06-28T15:04:34.520Z,15.95
2017-06-28T15:07:02.054Z,15.40
2017-06-28T15:09:29.549Z,19.35
2017-06-28T15:11:57.032Z,16.37
2017-06-28T15:14:24.545Z,16.55
2017-06-28T15:16:52.041Z,15.98
2017-06-28T15:19:19.607Z,15.82
2017-06-28T15:21:47.113Z,17.02
2017-06-28T15:24:14.655Z,17.85
2017-06-28T15:26:42.144Z,16.20
2017-06-28T15:29:09.999Z,15.50
2017-06-28T15:31:37.556Z,19.87
2017-06-28T15:34:05.084Z,14.80
2017-06-28T15:36:33.364Z,16.73
2017-06-28T15:39:01.622Z,17.40
2017-06-28T15:41:30.129Z,17.52
2017-06-28T15:43:57.635Z,15.07
2017-06-28T15:46:25.141Z,15.50
2017-06-28T15:48:52.657Z,14.70
2017-06-28T15:51:20.186Z,14.82
2017-06-28T15:53:59.498Z,15.90
2017-06-28T15:56:30.696Z,18.05
2017-06-28T15:58:58.223Z,16.30
2017-06-28T16:01:25.814Z,15.85
2017-06-28T16:03:53.306Z,16.67
2017-06-28T16:06:20.820Z,15.10
2017-06-28T16:08:48.327Z,15.13
2017-06-28T16:11:16.615Z,15.57
2017-06-28T16:13:44.897Z,17.45
2017-06-28T16:16:12.409Z,15.52
2017-06-28T16:18:39.939Z,14.57
2017-06-28T16:21:07.551Z,16.00
2017-06-28T16:23:35.081Z,14.87
2017-06-28T16:26:02.589Z,18.92
2017-06-28T16:28:30.164Z,12.50
2017-06-28T16:30:58.848Z,13.40
2017-06-28T16:33:26.389Z,14.52
2017-06-28T16:35:54.661Z,14.48
2017-06-28T16:38:22.221Z,14.70
2017-06-28T16:40:49.811Z,15.65
2017-06-28T16:43:17.386Z,16.02
2017-06-28T16:45:44.976Z,14.50
2017-06-28T16:48:12.596Z,14.20
2017-06-28T16:50:40.179Z,14.35
2017-06-28T16:53:07.699Z,14.13
2017-06-28T16:55:35.249Z,13.57
2017-06-28T16:58:02.883Z,11.98
2017-06-28T17:00:30.436Z,15.90
2017-06-28T17:02:57.998Z,12.37
2017-06-28T17:05:25.494Z,14.40
2017-06-28T17:07:53.005Z,14.00
2017-06-28T17:10:21.286Z,13.05
2017-06-28T17:12:48.887Z,13.98
2017-06-28T17:15:16.405Z,14.05
2017-06-28T17:17:43.945Z,13.02
2017-06-28T17:20:11.469Z,12.95
2017-06-28T17:22:39.028Z,14.48
2017-06-28T17:25:06.613Z,16.85
2017-06-28T17:27:34.448Z,13.62
2017-06-28T17:30:02.089Z,14.48
2017-06-28T17:32:29.632Z,12.98
2017-06-28T17:34:57.210Z,15.23
2017-06-28T17:37:24.816Z,11.15
2017-06-28T17:39:52.321Z,12.50
2017-06-28T17:42:19.913Z,13.80
2017-06-28T17:44:47.523Z,14.48
2017-06-28T17:47:15.096Z,14.52
2017-06-28T17:49:42.592Z,12.82
2017-06-28T17:52:10.272Z,14.27
2017-06-28T17:54:37.862Z,15.15
2017-06-28T17:57:07.195Z,13.13
2017-06-28T17:59:34.770Z,13.77
2017-06-28T18:02:02.298Z,15.88
2017-06-28T18:04:29.855Z,14.57
2017-06-28T18:06:57.491Z,14.30
2017-06-28T18:09:25.096Z,14.30
2017-06-28T18:11:52.648Z,14.77
2017-06-28T18:14:20.202Z,14.50
2017-06-28T18:16:47.804Z,15.15
2017-06-28T18:19:16.086Z,12.75
2017-06-28T18:21:44.385Z,12.68
2017-06-28T18:24:11.923Z,15.02
2017-06-28T18:26:39.449Z,14.68
2017-06-28T18:29:07.058Z,12.80
2017-06-28T18:31:34.560Z,12.60
2017-06-28T18:34:02.089Z,11.52
2017-06-28T18:36:29.652Z,11.48
2017-06-28T18:38:57.176Z,12.00
2017-06-28T18:41:24.763Z,17.20
2017-06-28T18:43:52.345Z,13.25
2017-06-28T18:46:19.865Z,11.93
2017-06-28T18:48:47.497Z,13.05
2017-06-28T18:51:15.012Z,11.52
2017-06-28T18:53:42.547Z,13.88
2017-06-28T18:56:10.842Z,18.83
2017-06-28T18:58:38.391Z,18.25
2017-06-28T19:01:06.105Z,14.50
2017-06-28T19:03:33.634Z,14.68
2017-06-28T19:06:02.120Z,15.65
2017-06-28T19:08:29.916Z,16.02
2017-06-28T19:10:57.448Z,19.52
2017-06-28T19:13:24.985Z,17.50
2017-06-28T19:15:52.550Z,17.48
2017-06-28T19:18:20.067Z,19.25
2017-06-28T19:20:47.612Z,19.60
2017-06-28T19:23:15.214Z,18.12
2017-06-28T19:25:42.828Z,19.25
2017-06-28T19:28:10.448Z,21.10
2017-06-28T19:30:38.849Z,19.27
2017-06-28T19:33:06.423Z,21.58
2017-06-28T19:35:34.002Z,21.92
2017-06-28T19:38:01.546Z,23.33
2017-06-28T19:40:30.116Z,22.80
2017-06-28T19:42:57.653Z,22.95
2017-06-28T20:09:51.554Z,26.25
2017-06-28T20:12:19.180Z,26.02
2017-06-28T20:14:46.687Z,25.77
2017-06-28T20:17:14.203Z,27.15
2017-06-28T20:19:41.798Z,27.52
2017-06-28T20:22:09.299Z,26.15
2017-06-28T20:24:36.792Z,26.08
2017-06-28T20:27:04.310Z,26.00
2017-06-28T20:29:32.573Z,27.15
2017-06-28T20:32:00.085Z,26.52
2017-06-28T20:34:27.624Z,28.65
2017-06-28T20:36:55.171Z,26.05
2017-06-28T20:39:22.724Z,27.17
2017-06-28T20:41:50.269Z,28.98
2017-06-28T20:44:17.892Z,27.58
2017-06-28T20:46:45.416Z,27.65
2017-06-28T20:49:12.951Z,32.92
2017-06-28T20:51:40.470Z,26.55
2017-06-28T20:54:08.079Z,30.10
2017-06-28T20:56:35.590Z,29.83
2017-06-28T20:59:03.133Z,28.08
2017-06-28T21:01:30.826Z,27.70
2017-06-28T21:03:58.369Z,28.12
2017-06-28T21:06:25.885Z,26.58
2017-06-28T21:08:53.417Z,28.15
2017-06-28T21:11:21.028Z,28.80
2017-06-28T21:13:48.576Z,28.85
2017-06-28T21:16:16.127Z,30.65
2017-06-28T21:18:43.679Z,28.92
2017-06-28T21:21:11.208Z,28.80
2017-06-28T21:23:38.735Z,30.62
2017-06-28T21:26:06.251Z,32.70
2017-06-28T21:28:33.776Z,29.60
2017-06-28T21:31:01.326Z,28.98
2017-06-28T21:33:28.967Z,30.90
2017-06-28T21:35:56.595Z,30.27
2017-06-28T21:38:24.127Z,28.73
2017-06-28T21:40:51.710Z,30.70
2017-06-28T21:43:19.234Z,36.30
2017-06-28T21:45:46.761Z,30.17
2017-06-28T21:48:14.276Z,29.40
2017-06-28T21:50:41.795Z,29.67
2017-06-28T21:53:09.396Z,32.25
2017-06-28T21:55:36.920Z,28.95
2017-06-28T21:58:04.456Z,29.35
2017-06-28T22:00:31.964Z,28.87
2017-06-28T22:02:59.465Z,32.25
2017-06-28T22:05:26.986Z,32.42
2017-06-28T22:07:54.517Z,32.08
2017-06-28T22:10:22.173Z,30.88
2017-06-28T22:12:49.722Z,29.45
2017-06-28T22:15:17.237Z,30.10
2017-06-28T22:17:44.751Z,30.25
2017-06-28T22:20:18.162Z,30.48
2017-06-28T22:22:45.820Z,29.70
2017-06-28T22:25:13.318Z,29.77
2017-06-28T22:27:40.833Z,32.35
2017-06-28T22:30:08.381Z,30.50
2017-06-28T22:32:35.922Z,32.30
2017-06-28T22:35:04.198Z,31.30
2017-06-28T22:37:32.541Z,31.80
2017-06-28T22:40:00.063Z,38.58
2017-06-28T22:42:27.623Z,31.48
2017-06-28T22:44:55.247Z,32.30
2017-06-28T22:47:23.525Z,31.85
2017-06-28T22:49:51.860Z,31.92
2017-06-28T22:52:19.518Z,33.15
2017-06-28T22:54:47.079Z,33.45
2017-06-28T22:57:14.698Z,32.08
2017-06-28T22:59:42.326Z,33.67
2017-06-28T23:02:09.854Z,32.70
2017-06-28T23:04:37.368Z,33.28
2017-06-28T23:07:05.682Z,33.10
2017-06-28T23:09:33.172Z,33.35
2017-06-28T23:12:00.715Z,33.97
2017-06-28T23:14:28.263Z,35.42
2017-06-28T23:16:55.823Z,33.67
2017-06-28T23:19:23.493Z,33.30
2017-06-28T23:21:51.327Z,34.42
2017-06-28T23:24:18.862Z,33.33
2017-06-28T23:26:46.373Z,37.33
2017-06-28T23:29:13.878Z,37.17
2017-06-28T23:31:41.397Z,38.97
2017-06-28T23:34:08.918Z,37.80
2017-06-28T23:36:37.187Z,37.42
2017-06-28T23:39:04.697Z,36.40
2017-06-28T23:41:32.249Z,37.72
2017-06-28T23:43:59.725Z,33.15
2017-06-28T23:46:27.249Z,37.78
2017-06-28T23:48:54.753Z,36.60
2017-06-28T23:51:22.292Z,37.58
2017-06-28T23:53:49.988Z,34.58
2017-06-28T23:56:17.503Z,33.88
2017-06-28T23:58:45.046Z,36.22
